Station: Strathalbyn

  Atmospheric Gas Attenuation - ITU Rec 676-11   --------------- db/100km ---------------
Date Time Temp RH % AH g/m3 Dew Point Wind Direction Speed kph Gust kph Barometer mB Rainfall Since 9am 24GHz 47GHz 76GHz 122GHz 134GHz 241GHz
17 02:10 5.6 97 6.86 5.2 9 11 1021.9 0 16.2 25.7 37.0 96.8 85.2 291.2
17 02:00 5.2 96 6.61 4.6 9 13 1021.9 0 15.7 25.4 36.1 94.4 82.2 280.5
17 01:50 5.8 97 6.95 5.4 13 13 1021.9 0 16.4 25.8 37.3 97.5 86.3 294.8
17 01:40 5.7 96 6.84 5.1 13 15 1022.2 0 16.2 25.7 36.9 96.4 84.9 289.9
17 01:30 5.8 97 6.95 5.4 11 15 1022.1 0 16.4 25.8 37.3 97.5 86.3 294.9
17 01:20 6 97 7.04 5.6 11 13 1022.1 0 16.6 25.9 37.6 98.3 87.3 298.5
17 01:10 6.2 97 7.14 5.8 11 11 1022.2 0 16.8 26.0 37.9 99.2 88.5 302.6
17 01:00 6 97 7.04 5.6 7 11 1022.3 0 16.6 25.9 37.6 98.3 87.3 298.5
17 00:50 5.8 96 6.88 5.2 6 7 1022.5 0 16.3 25.7 37.0 96.8 85.3 291.5
17 00:40 5.9 96 6.93 5.3 11 11 1022.6 0 16.4 25.8 37.2 97.2 85.9 293.6
17 00:30 6.3 97 7.18 5.9 13 15 1022.7 0 16.9 26.1 38.1 99.6 89.0 304.3
17 00:20 6 96 6.97 5.4 13 13 1022.7 0 16.4 25.8 37.3 97.6 86.4 295.2
17 00:10 5.8 96 6.88 5.2 11 11 1022.7 0 16.3 25.7 37.0 96.8 85.4 291.6
17 00:00 5.9 96 6.93 5.3 13 15 1022.9 0 16.4 25.8 37.2 97.3 86.0 293.7
16 23:50 6 95 6.9 5.3 13 15 1023 0 16.3 25.7 37.0 96.8 85.4 291.9
16 23:40 6.6 96 7.25 6 15 15 1023 0 17.0 26.1 38.2 100.0 89.6 306.6
16 23:30 7 95 7.36 6.3 15 15 1023.1 0 17.2 26.2 38.5 100.8 90.7 310.4
16 23:20 7.3 96 7.59 6.7 15 15 1023.2 0 17.7 26.5 39.3 103.0 93.6 320.5
16 23:10 7.2 96 7.54 6.6 15 15 1023.2 0 17.6 26.5 39.2 102.5 93.0 318.5
16 23:00 7.1 97 7.57 6.7 13 15 1023.1 0 17.7 26.5 39.3 103.0 93.5 320.3
16 22:50 5.7 90 6.41 4.2 11 11 1023.2 0 15.2 25.0 35.1 91.7 79.0 269.4
16 22:40 6.9 96 7.39 6.3 13 15 1023.2 0 17.3 26.3 38.7 101.2 91.2 312.3
16 22:30 6.7 96 7.3 6.1 13 17 1023.2 0 17.1 26.2 38.4 100.5 90.2 308.7
16 22:20 6.3 96 7.11 5.7 11 13 1023.2 0 16.7 26.0 37.8 98.8 88.0 301.0
16 22:10 6.2 94 6.92 5.3 11 13 1023.4 0 16.3 25.7 37.0 96.8 85.5 292.2
16 22:00 6.8 96 7.35 6.2 13 15 1023.3 0 17.2 26.3 38.6 100.9 90.8 310.8
16 21:50 6.6 94 7.1 5.7 11 11 1023.7 0 16.7 25.9 37.6 98.4 87.6 299.5
16 21:40 7 95 7.36 6.3 11 13 1023.8 0 17.2 26.2 38.5 100.8 90.7 310.6
16 21:30 6.9 93 7.16 5.8 11 11 1023.7 0 16.8 25.9 37.7 98.7 88.1 301.3
16 21:20 7.4 95 7.56 6.7 11 11 1023.7 0 17.6 26.5 39.2 102.6 93.1 318.8
16 21:10 7.6 96 7.74 7 13 13 1023.8 0 18.0 26.7 39.8 104.3 95.3 326.8
16 21:00 7.5 96 7.69 6.9 11 13 1023.7 0 17.9 26.6 39.7 103.9 94.7 324.7
16 20:50 7.2 94 7.38 6.3 13 13 1023.7 0 17.3 26.2 38.5 100.8 90.8 310.8
16 20:40 7.4 95 7.56 6.7 13 15 1023.6 0 17.6 26.5 39.2 102.5 93.0 318.7
16 20:30 7.3 95 7.51 6.6 13 15 1023.6 0 17.5 26.4 39.0 102.1 92.5 316.7
16 20:20 7.2 93 7.3 6.1 11 13 1023.6 0 17.1 26.1 38.2 99.9 89.7 306.9
16 20:10 7.4 94 7.48 6.5 11 13 1023.6 0 17.5 26.3 38.8 101.6 91.9 314.8
16 20:00 7.6 93 7.5 6.5 7 9 1023.8 0 17.5 26.3 38.8 101.6 92.0 315.0
16 19:50 7.3 91 7.19 5.9 7 9 1023.9 0 16.9 25.9 37.7 98.5 88.0 301.2
16 19:40 7.2 88 6.91 5.3 7 7 1023.9 0 16.3 25.4 36.6 95.5 84.3 288.1
16 19:30 7.4 87 6.92 5.4 6 7 1023.8 0 16.3 25.4 36.5 95.4 84.2 287.8
16 19:20 7.7 85 6.9 5.3 6 7 1023.7 0 16.2 25.3 36.3 94.8 83.6 285.8
16 19:10 8 84 6.95 5.5 6 7 1023.6 0 16.3 25.3 36.3 95.0 84.0 287.0
16 19:00 9 84 7.41 6.4 2 7 1023.5 0 17.3 25.7 37.8 98.8 89.1 305.1
16 18:50 9.4 84 7.6 6.8 7 9 1023.5 0 17.6 25.9 38.3 100.4 91.2 312.5
16 18:40 9.7 83 7.65 7 7 9 1023.4 0 17.7 25.9 38.4 100.5 91.5 313.7
16 18:30 10 83 7.8 7.3 9 11 1023.4 0 18.0 26.1 38.9 101.8 93.2 319.6
16 18:20 10 83 7.8 7.3 9 9 1023.3 0 18.0 26.1 38.9 101.8 93.2 319.6
16 18:10 9.9 82 7.66 7 9 11 1023.3 0 17.8 25.9 38.3 100.4 91.4 313.3
16 18:00 10.6 82 8.01 7.7 9 11 1023.2 0 18.5 26.2 39.4 103.3 95.3 327.1
16 17:50 10.7 81 7.96 7.6 7 7 1023.1 0 18.4 26.1 39.2 102.6 94.5 324.3
16 17:40 11.1 80 8.06 7.8 6 7 1023 0 18.6 26.2 39.4 103.2 95.3 327.3
16 17:30 11.3 80 8.16 8 7 7 1023 0 18.8 26.3 39.7 104.0 96.5 331.2
16 17:20 11.7 79 8.26 8.2 7 7 1023.1 0 19.0 26.3 39.9 104.6 97.3 334.3
16 17:10 12.2 78 8.42 8.5 7 7 1023 0 19.3 26.4 40.3 105.7 98.8 339.7
16 17:00 12.9 75 8.45 8.6 7 9 1023 0 19.3 26.3 40.1 105.1 98.3 338.1
16 16:50 13.5 73 8.54 8.8 9 9 1022.9 0 19.5 26.2 40.1 105.2 98.8 339.7
16 16:40 13.8 71 8.46 8.6 11 11 1022.8 0 19.3 26.0 39.7 103.9 97.3 334.6
16 16:30 14.2 69 8.43 8.6 9 11 1022.9 0 19.2 25.9 39.3 103.1 96.4 331.6
16 16:20 14.2 68 8.3 8.4 9 11 1022.8 0 18.9 25.7 38.8 101.7 94.7 325.6
16 16:10 14.4 68 8.41 8.6 13 15 1022.8 0 19.1 25.8 39.2 102.6 95.9 329.8
16 16:00 14.6 68 8.51 8.8 13 17 1023 0 19.3 25.9 39.5 103.5 97.0 333.6
16 15:50 14.8 67 8.49 8.7 15 17 1023 0 19.3 25.8 39.3 103.0 96.5 331.8
16 15:40 15 66 8.46 8.7 15 15 1022.9 0 19.2 25.7 39.1 102.4 95.8 329.6
16 15:30 14.9 64 8.16 8.2 13 17 1022.9 0 18.6 25.2 37.9 99.4 92.1 316.4
16 15:20 15.5 65 8.59 9 11 13 1022.9 0 19.5 25.7 39.3 103.1 96.9 333.4
16 15:10 15.3 62 8.1 8.1 11 11 1022.9 0 18.4 25.0 37.5 98.2 90.8 312.1
16 15:00 15.3 63 8.23 8.3 13 17 1022.9 0 18.7 25.2 38.0 99.6 92.5 318.0
16 14:50 15.4 65 8.54 8.9 11 13 1022.9 0 19.4 25.7 39.2 102.7 96.4 331.6
16 14:40 15.3 65 8.49 8.8 13 15 1022.9 0 19.3 25.6 39.0 102.3 95.9 329.7
16 14:30 15.9 69 9.34 10.2 11 17 1022.9 0 21.0 26.8 42.1 110.6 106.2 366.1
16 14:20 15.3 66 8.62 9 13 15 1022.8 0 19.5 25.8 39.6 103.7 97.6 335.6
16 14:10 15.4 65 8.54 8.9 11 13 1022.9 0 19.4 25.7 39.2 102.7 96.4 331.6
16 14:00 15.4 68 8.93 9.5 13 15 1022.9 0 20.2 26.3 40.7 106.9 101.5 349.4
16 13:50 15 67 8.59 8.9 13 13 1023 0 19.5 25.9 39.6 103.8 97.6 335.6
16 13:40 15.6 66 8.78 9.3 15 17 1023 0 19.9 26.0 40.0 105.0 99.3 341.7
16 13:30 15.4 67 8.8 9.3 15 19 1023.1 0 19.9 26.1 40.2 105.5 99.8 343.5
16 13:20 15.2 67 8.7 9.1 17 17 1023.2 0 19.7 26.0 39.9 104.7 98.8 339.8
16 13:10 15.2 71 9.22 10 17 17 1023.4 0 20.8 26.9 42.0 110.3 105.6 363.9
16 13:00 15.1 68 8.77 9.2 11 17 1023.5 0 19.9 26.2 40.3 105.6 99.8 343.5
16 12:50 15.9 66 8.94 9.6 11 15 1023.5 0 20.2 26.2 40.6 106.3 101.0 347.8
16 12:40 15.5 62 8.2 8.3 4 7 1023.6 0 18.6 25.2 37.8 99.1 91.9 316.0
16 12:30 15.4 61 8.01 7.9 9 11 1023.9 0 18.2 24.9 37.2 97.3 89.7 308.0
16 12:20 15.3 65 8.49 8.8 9 11 1024.2 0 19.3 25.7 39.1 102.5 96.0 330.1
16 12:10 14.8 67 8.49 8.7 9 11 1024.3 0 19.3 25.8 39.4 103.1 96.6 332.2
16 12:00 14.8 64 8.11 8.1 13 20 1024.4 0 18.5 25.2 37.9 99.1 91.7 314.9
16 11:50 15.4 66 8.67 9.1 11 11 1024.5 0 19.6 26.0 39.8 104.3 98.2 337.9
16 11:40 15.2 66 8.57 8.9 7 9 1024.6 0 19.4 25.9 39.5 103.5 97.2 334.2
16 11:30 14.9 69 8.79 9.3 11 15 1024.7 0 19.9 26.3 40.5 106.2 100.4 345.7
16 11:20 14.4 74 9.15 9.8 13 15 1024.8 0 20.7 27.1 42.2 110.8 105.9 364.8
16 11:10 14.7 77 9.69 10.7 13 15 1024.9 0 21.9 27.9 44.3 116.3 112.8 389.0
16 11:00 14.2 81 9.89 11 15 19 1025 0 22.3 28.4 45.4 119.3 116.3 401.2
16 10:50 13.6 81 9.53 10.4 15 17 1025.2 0 21.6 28.0 44.3 116.2 112.3 386.8
16 10:40 13.9 80 9.59 10.5 17 19 1025.2 0 21.7 28.0 44.4 116.4 112.7 388.2
16 10:30 14.1 81 9.83 10.9 17 20 1025.2 0 22.2 28.3 45.3 118.8 115.7 398.8
16 10:20 14.3 81 9.95 11.1 17 19 1025.2 0 22.4 28.4 45.6 119.9 117.0 403.6
16 10:10 14.1 81 9.83 10.9 15 15 1025.1 0 22.2 28.3 45.2 118.8 115.7 398.8
16 10:00 13.9 82 9.83 10.9 11 19 1025 0 22.2 28.4 45.4 119.1 116.0 399.8
16 09:50 13.6 81 9.53 10.4 11 13 1024.9 0 21.6 27.9 44.3 116.2 112.2 386.8
16 09:40 13.4 82 9.53 10.4 11 13 1024.8 0 21.6 28.0 44.4 116.5 112.5 387.7

Last Refresh: 17-Jul-2020 02:23:41

Most of the information presented on this site is sourced from the Bureau of Meteorology.  Copyright in all material sourced from the Bureau of Meteorology resides with the Commonwealth of Australia.